sensor_id;sensor_type;location;lat;lon;timestamp;P1;durP1;ratioP1;P2;durP2;ratioP2
41289;SDS011;36117;46.680;11.154;2022-10-31T00:02:23;14.07;;;3.70;;
41289;SDS011;36117;46.680;11.154;2022-10-31T00:04:49;6.68;;;3.05;;
41289;SDS011;36117;46.680;11.154;2022-10-31T00:07:15;9.95;;;2.95;;
41289;SDS011;36117;46.680;11.154;2022-10-31T00:09:41;8.82;;;3.28;;
41289;SDS011;36117;46.680;11.154;2022-10-31T00:12:06;10.45;;;3.30;;
41289;SDS011;36117;46.680;11.154;2022-10-31T00:14:32;8.77;;;2.80;;
41289;SDS011;36117;46.680;11.154;2022-10-31T00:16:58;9.55;;;3.25;;
41289;SDS011;36117;46.680;11.154;2022-10-31T00:19:23;11.70;;;3.10;;
41289;SDS011;36117;46.680;11.154;2022-10-31T00:21:51;9.13;;;3.30;;
41289;SDS011;36117;46.680;11.154;2022-10-31T00:24:17;7.43;;;2.42;;
41289;SDS011;36117;46.680;11.154;2022-10-31T00:26:42;13.95;;;3.75;;
41289;SDS011;36117;46.680;11.154;2022-10-31T00:29:08;12.50;;;2.97;;
41289;SDS011;36117;46.680;11.154;2022-10-31T00:31:35;8.90;;;3.33;;
41289;SDS011;36117;46.680;11.154;2022-10-31T00:34:01;12.82;;;2.83;;
41289;SDS011;36117;46.680;11.154;2022-10-31T00:36:28;11.27;;;2.88;;
41289;SDS011;36117;46.680;11.154;2022-10-31T00:38:53;6.32;;;2.90;;
41289;SDS011;36117;46.680;11.154;2022-10-31T00:41:19;6.40;;;2.10;;
41289;SDS011;36117;46.680;11.154;2022-10-31T00:43:45;9.52;;;3.00;;
41289;SDS011;36117;46.680;11.154;2022-10-31T00:46:11;8.05;;;2.30;;
41289;SDS011;36117;46.680;11.154;2022-10-31T00:48:38;16.50;;;3.03;;
41289;SDS011;36117;46.680;11.154;2022-10-31T00:51:04;7.63;;;2.28;;
41289;SDS011;36117;46.680;11.154;2022-10-31T00:53:30;11.70;;;3.25;;
41289;SDS011;36117;46.680;11.154;2022-10-31T00:55:56;12.88;;;3.40;;
41289;SDS011;36117;46.680;11.154;2022-10-31T00:58:22;12.70;;;3.30;;
41289;SDS011;36117;46.680;11.154;2022-10-31T01:00:48;14.25;;;3.42;;
41289;SDS011;36117;46.680;11.154;2022-10-31T01:03:23;11.15;;;3.50;;
41289;SDS011;36117;46.680;11.154;2022-10-31T01:06:00;11.82;;;3.00;;
41289;SDS011;36117;46.680;11.154;2022-10-31T01:08:26;12.85;;;3.55;;
41289;SDS011;36117;46.680;11.154;2022-10-31T01:13:42;9.05;;;2.92;;
41289;SDS011;36117;46.680;11.154;2022-10-31T01:16:09;7.57;;;2.70;;
41289;SDS011;36117;46.680;11.154;2022-10-31T01:18:36;9.93;;;2.50;;
41289;SDS011;36117;46.680;11.154;2022-10-31T01:21:04;7.82;;;2.63;;
41289;SDS011;36117;46.680;11.154;2022-10-31T01:23:31;12.20;;;2.40;;
41289;SDS011;36117;46.680;11.154;2022-10-31T01:25:59;10.00;;;2.92;;
41289;SDS011;36117;46.680;11.154;2022-10-31T01:28:32;9.80;;;2.80;;
41289;SDS011;36117;46.680;11.154;2022-10-31T01:31:00;8.80;;;2.90;;
41289;SDS011;36117;46.680;11.154;2022-10-31T01:33:33;10.73;;;3.17;;
41289;SDS011;36117;46.680;11.154;2022-10-31T01:35:59;8.13;;;2.42;;
41289;SDS011;36117;46.680;11.154;2022-10-31T01:38:26;12.48;;;3.03;;
41289;SDS011;36117;46.680;11.154;2022-10-31T01:40:52;9.13;;;3.13;;
41289;SDS011;36117;46.680;11.154;2022-10-31T01:43:18;13.95;;;3.38;;
41289;SDS011;36117;46.680;11.154;2022-10-31T01:45:46;14.88;;;3.95;;
41289;SDS011;36117;46.680;11.154;2022-10-31T01:48:19;8.27;;;2.33;;
41289;SDS011;36117;46.680;11.154;2022-10-31T01:50:49;11.90;;;3.78;;
41289;SDS011;36117;46.680;11.154;2022-10-31T01:53:18;5.68;;;2.60;;
41289;SDS011;36117;46.680;11.154;2022-10-31T01:55:45;7.82;;;2.85;;
41289;SDS011;36117;46.680;11.154;2022-10-31T01:58:13;6.75;;;2.88;;
41289;SDS011;36117;46.680;11.154;2022-10-31T02:00:43;14.93;;;2.83;;
41289;SDS011;36117;46.680;11.154;2022-10-31T02:03:11;13.02;;;2.63;;
41289;SDS011;36117;46.680;11.154;2022-10-31T02:05:37;6.60;;;2.17;;
41289;SDS011;36117;46.680;11.154;2022-10-31T02:10:33;13.23;;;2.70;;
41289;SDS011;36117;46.680;11.154;2022-10-31T02:13:02;14.98;;;2.88;;
41289;SDS011;36117;46.680;11.154;2022-10-31T02:15:29;6.13;;;2.42;;
41289;SDS011;36117;46.680;11.154;2022-10-31T02:17:56;9.65;;;2.65;;
41289;SDS011;36117;46.680;11.154;2022-10-31T02:20:24;6.47;;;2.90;;
41289;SDS011;36117;46.680;11.154;2022-10-31T02:37:18;10.68;;;3.58;;
41289;SDS011;36117;46.680;11.154;2022-10-31T02:47:17;12.48;;;3.58;;
41289;SDS011;36117;46.680;11.154;2022-10-31T02:49:53;8.00;;;2.83;;
41289;SDS011;36117;46.680;11.154;2022-10-31T02:52:27;9.75;;;3.88;;
41289;SDS011;36117;46.680;11.154;2022-10-31T02:54:54;13.48;;;2.65;;
41289;SDS011;36117;46.680;11.154;2022-10-31T02:57:31;6.28;;;2.90;;
41289;SDS011;36117;46.680;11.154;2022-10-31T03:00:00;6.35;;;2.25;;
41289;SDS011;36117;46.680;11.154;2022-10-31T03:05:22;13.13;;;2.97;;
41289;SDS011;36117;46.680;11.154;2022-10-31T03:07:59;12.20;;;3.13;;
41289;SDS011;36117;46.680;11.154;2022-10-31T03:13:20;9.43;;;2.80;;
41289;SDS011;36117;46.680;11.154;2022-10-31T03:16:44;10.32;;;2.30;;
41289;SDS011;36117;46.680;11.154;2022-10-31T03:18:50;7.72;;;3.33;;
41289;SDS011;36117;46.680;11.154;2022-10-31T03:21:59;14.35;;;3.15;;
41289;SDS011;36117;46.680;11.154;2022-10-31T03:24:20;10.77;;;2.97;;
41289;SDS011;36117;46.680;11.154;2022-10-31T03:26:50;8.27;;;2.65;;
41289;SDS011;36117;46.680;11.154;2022-10-31T03:29:20;7.85;;;2.80;;
41289;SDS011;36117;46.680;11.154;2022-10-31T03:31:51;5.53;;;2.23;;
41289;SDS011;36117;46.680;11.154;2022-10-31T03:34:22;8.60;;;2.40;;
41289;SDS011;36117;46.680;11.154;2022-10-31T03:36:49;5.88;;;2.63;;
41289;SDS011;36117;46.680;11.154;2022-10-31T03:39:19;12.85;;;2.38;;
41289;SDS011;36117;46.680;11.154;2022-10-31T03:41:49;6.05;;;2.90;;
41289;SDS011;36117;46.680;11.154;2022-10-31T03:44:21;11.80;;;2.95;;
41289;SDS011;36117;46.680;11.154;2022-10-31T03:46:48;10.00;;;2.25;;
41289;SDS011;36117;46.680;11.154;2022-10-31T03:49:14;13.35;;;3.30;;
41289;SDS011;36117;46.680;11.154;2022-10-31T03:54:24;14.45;;;2.60;;
41289;SDS011;36117;46.680;11.154;2022-10-31T03:56:56;4.53;;;2.05;;
41289;SDS011;36117;46.680;11.154;2022-10-31T03:59:33;12.02;;;2.60;;
41289;SDS011;36117;46.680;11.154;2022-10-31T04:02:04;11.13;;;2.72;;
41289;SDS011;36117;46.680;11.154;2022-10-31T04:04:33;7.63;;;2.72;;
41289;SDS011;36117;46.680;11.154;2022-10-31T04:07:00;6.55;;;2.00;;
41289;SDS011;36117;46.680;11.154;2022-10-31T04:09:27;6.88;;;2.30;;
41289;SDS011;36117;46.680;11.154;2022-10-31T04:11:57;3.85;;;2.10;;
41289;SDS011;36117;46.680;11.154;2022-10-31T04:14:26;16.90;;;2.92;;
41289;SDS011;36117;46.680;11.154;2022-10-31T04:16:54;6.35;;;2.10;;
41289;SDS011;36117;46.680;11.154;2022-10-31T04:19:20;10.82;;;3.55;;
41289;SDS011;36117;46.680;11.154;2022-10-31T04:21:46;9.23;;;2.42;;
41289;SDS011;36117;46.680;11.154;2022-10-31T04:24:12;10.35;;;3.45;;
41289;SDS011;36117;46.680;11.154;2022-10-31T04:26:38;14.02;;;2.13;;
41289;SDS011;36117;46.680;11.154;2022-10-31T04:29:03;8.50;;;2.55;;
41289;SDS011;36117;46.680;11.154;2022-10-31T04:31:29;5.75;;;2.22;;
41289;SDS011;36117;46.680;11.154;2022-10-31T04:33:55;9.95;;;2.67;;
41289;SDS011;36117;46.680;11.154;2022-10-31T04:36:21;7.55;;;2.20;;
41289;SDS011;36117;46.680;11.154;2022-10-31T04:38:46;7.22;;;2.10;;
41289;SDS011;36117;46.680;11.154;2022-10-31T04:41:12;8.27;;;2.20;;
41289;SDS011;36117;46.680;11.154;2022-10-31T04:43:38;13.25;;;2.22;;
41289;SDS011;36117;46.680;11.154;2022-10-31T04:46:04;8.23;;;2.20;;
41289;SDS011;36117;46.680;11.154;2022-10-31T04:48:30;8.80;;;2.10;;
41289;SDS011;36117;46.680;11.154;2022-10-31T04:50:59;14.27;;;2.70;;
41289;SDS011;36117;46.680;11.154;2022-10-31T04:53:25;8.35;;;2.00;;
41289;SDS011;36117;46.680;11.154;2022-10-31T04:55:51;7.78;;;2.13;;
41289;SDS011;36117;46.680;11.154;2022-10-31T04:58:17;11.75;;;2.53;;
41289;SDS011;36117;46.680;11.154;2022-10-31T05:00:42;9.65;;;2.35;;
41289;SDS011;36117;46.680;11.154;2022-10-31T05:03:08;5.60;;;2.13;;
41289;SDS011;36117;46.680;11.154;2022-10-31T05:05:34;26.40;;;3.08;;
41289;SDS011;36117;46.680;11.154;2022-10-31T05:08:00;8.70;;;2.42;;
41289;SDS011;36117;46.680;11.154;2022-10-31T05:10:27;9.82;;;3.05;;
41289;SDS011;36117;46.680;11.154;2022-10-31T05:12:58;13.93;;;2.40;;
41289;SDS011;36117;46.680;11.154;2022-10-31T05:15:25;10.98;;;3.33;;
41289;SDS011;36117;46.680;11.154;2022-10-31T05:17:52;8.75;;;2.40;;
41289;SDS011;36117;46.680;11.154;2022-10-31T05:20:20;7.50;;;2.75;;
41289;SDS011;36117;46.680;11.154;2022-10-31T05:22:48;6.85;;;2.50;;
41289;SDS011;36117;46.680;11.154;2022-10-31T05:25:16;7.75;;;2.53;;
41289;SDS011;36117;46.680;11.154;2022-10-31T05:27:43;10.07;;;3.10;;
41289;SDS011;36117;46.680;11.154;2022-10-31T05:30:11;11.38;;;2.08;;
41289;SDS011;36117;46.680;11.154;2022-10-31T05:32:42;5.07;;;2.25;;
41289;SDS011;36117;46.680;11.154;2022-10-31T05:35:13;8.30;;;2.38;;
41289;SDS011;36117;46.680;11.154;2022-10-31T05:37:43;7.90;;;2.22;;
41289;SDS011;36117;46.680;11.154;2022-10-31T05:40:10;12.88;;;3.65;;
41289;SDS011;36117;46.680;11.154;2022-10-31T05:42:38;8.30;;;3.13;;
41289;SDS011;36117;46.680;11.154;2022-10-31T05:45:05;17.15;;;3.00;;
41289;SDS011;36117;46.680;11.154;2022-10-31T05:47:32;8.48;;;2.50;;
41289;SDS011;36117;46.680;11.154;2022-10-31T05:49:58;6.75;;;2.35;;
41289;SDS011;36117;46.680;11.154;2022-10-31T05:52:24;16.48;;;2.92;;
41289;SDS011;36117;46.680;11.154;2022-10-31T05:54:49;10.93;;;3.90;;
41289;SDS011;36117;46.680;11.154;2022-10-31T05:57:15;11.80;;;2.38;;
41289;SDS011;36117;46.680;11.154;2022-10-31T05:59:41;11.93;;;2.72;;
41289;SDS011;36117;46.680;11.154;2022-10-31T06:02:07;14.20;;;2.97;;
41289;SDS011;36117;46.680;11.154;2022-10-31T06:04:32;7.25;;;2.75;;
41289;SDS011;36117;46.680;11.154;2022-10-31T06:06:59;14.57;;;3.90;;
41289;SDS011;36117;46.680;11.154;2022-10-31T06:09:24;9.18;;;4.18;;
41289;SDS011;36117;46.680;11.154;2022-10-31T06:11:50;10.20;;;4.05;;
41289;SDS011;36117;46.680;11.154;2022-10-31T06:14:16;9.77;;;3.38;;
41289;SDS011;36117;46.680;11.154;2022-10-31T06:16:42;13.95;;;4.13;;
41289;SDS011;36117;46.680;11.154;2022-10-31T06:19:08;13.38;;;3.60;;
41289;SDS011;36117;46.680;11.154;2022-10-31T06:21:33;12.10;;;3.75;;
41289;SDS011;36117;46.680;11.154;2022-10-31T06:23:59;9.27;;;2.92;;
41289;SDS011;36117;46.680;11.154;2022-10-31T06:26:25;14.57;;;3.53;;
41289;SDS011;36117;46.680;11.154;2022-10-31T06:28:50;14.85;;;3.15;;
41289;SDS011;36117;46.680;11.154;2022-10-31T06:31:16;26.30;;;3.38;;
41289;SDS011;36117;46.680;11.154;2022-10-31T06:33:42;11.90;;;3.50;;
41289;SDS011;36117;46.680;11.154;2022-10-31T06:36:08;12.23;;;3.42;;
41289;SDS011;36117;46.680;11.154;2022-10-31T06:38:34;12.07;;;4.10;;
41289;SDS011;36117;46.680;11.154;2022-10-31T06:41:04;16.23;;;3.70;;
41289;SDS011;36117;46.680;11.154;2022-10-31T06:43:30;14.15;;;3.28;;
41289;SDS011;36117;46.680;11.154;2022-10-31T06:46:03;9.02;;;3.55;;
41289;SDS011;36117;46.680;11.154;2022-10-31T06:48:30;13.02;;;3.38;;
41289;SDS011;36117;46.680;11.154;2022-10-31T06:50:59;6.72;;;2.90;;
41289;SDS011;36117;46.680;11.154;2022-10-31T06:53:28;14.73;;;4.05;;
41289;SDS011;36117;46.680;11.154;2022-10-31T06:55:55;11.63;;;3.95;;
41289;SDS011;36117;46.680;11.154;2022-10-31T06:58:21;8.98;;;3.00;;
41289;SDS011;36117;46.680;11.154;2022-10-31T07:00:47;12.77;;;4.05;;
41289;SDS011;36117;46.680;11.154;2022-10-31T07:03:13;9.23;;;3.85;;
41289;SDS011;36117;46.680;11.154;2022-10-31T07:05:45;10.57;;;4.63;;
41289;SDS011;36117;46.680;11.154;2022-10-31T07:08:11;12.77;;;4.47;;
41289;SDS011;36117;46.680;11.154;2022-10-31T07:10:38;10.63;;;4.05;;
41289;SDS011;36117;46.680;11.154;2022-10-31T07:13:07;10.00;;;3.15;;
41289;SDS011;36117;46.680;11.154;2022-10-31T07:15:38;14.10;;;4.20;;
41289;SDS011;36117;46.680;11.154;2022-10-31T07:18:06;11.63;;;4.30;;
41289;SDS011;36117;46.680;11.154;2022-10-31T07:20:33;8.77;;;3.45;;
41289;SDS011;36117;46.680;11.154;2022-10-31T07:22:59;6.95;;;3.35;;
41289;SDS011;36117;46.680;11.154;2022-10-31T07:25:25;16.23;;;3.78;;
41289;SDS011;36117;46.680;11.154;2022-10-31T07:27:52;7.15;;;3.83;;
41289;SDS011;36117;46.680;11.154;2022-10-31T07:30:18;10.82;;;3.78;;
41289;SDS011;36117;46.680;11.154;2022-10-31T07:32:45;19.73;;;3.65;;
41289;SDS011;36117;46.680;11.154;2022-10-31T07:35:13;13.45;;;3.47;;
41289;SDS011;36117;46.680;11.154;2022-10-31T07:37:41;11.18;;;3.10;;
41289;SDS011;36117;46.680;11.154;2022-10-31T07:40:07;10.60;;;3.85;;
41289;SDS011;36117;46.680;11.154;2022-10-31T07:42:37;9.15;;;2.95;;
41289;SDS011;36117;46.680;11.154;2022-10-31T07:45:04;7.82;;;2.60;;
41289;SDS011;36117;46.680;11.154;2022-10-31T07:47:38;11.50;;;3.38;;
41289;SDS011;36117;46.680;11.154;2022-10-31T07:50:04;9.60;;;2.55;;
41289;SDS011;36117;46.680;11.154;2022-10-31T07:52:31;6.13;;;2.40;;
41289;SDS011;36117;46.680;11.154;2022-10-31T07:54:57;8.90;;;2.97;;
41289;SDS011;36117;46.680;11.154;2022-10-31T07:57:22;7.85;;;2.78;;
41289;SDS011;36117;46.680;11.154;2022-10-31T07:59:48;11.40;;;2.80;;
41289;SDS011;36117;46.680;11.154;2022-10-31T08:02:14;8.38;;;2.45;;
41289;SDS011;36117;46.680;11.154;2022-10-31T08:04:39;5.88;;;2.15;;
41289;SDS011;36117;46.680;11.154;2022-10-31T08:07:05;9.30;;;2.58;;
41289;SDS011;36117;46.680;11.154;2022-10-31T08:09:31;6.28;;;1.70;;
41289;SDS011;36117;46.680;11.154;2022-10-31T08:11:57;4.35;;;1.75;;
41289;SDS011;36117;46.680;11.154;2022-10-31T08:14:22;5.65;;;2.10;;
41289;SDS011;36117;46.680;11.154;2022-10-31T08:16:48;6.47;;;1.80;;
41289;SDS011;36117;46.680;11.154;2022-10-31T08:19:14;6.22;;;1.55;;
41289;SDS011;36117;46.680;11.154;2022-10-31T08:21:40;4.88;;;2.17;;
41289;SDS011;36117;46.680;11.154;2022-10-31T08:24:05;7.35;;;3.17;;
41289;SDS011;36117;46.680;11.154;2022-10-31T08:26:31;9.52;;;2.33;;
41289;SDS011;36117;46.680;11.154;2022-10-31T08:28:57;3.22;;;1.70;;
41289;SDS011;36117;46.680;11.154;2022-10-31T08:31:23;4.97;;;2.38;;
41289;SDS011;36117;46.680;11.154;2022-10-31T08:33:52;8.57;;;2.05;;
41289;SDS011;36117;46.680;11.154;2022-10-31T08:36:18;4.28;;;1.63;;
41289;SDS011;36117;46.680;11.154;2022-10-31T08:38:47;6.47;;;2.15;;
41289;SDS011;36117;46.680;11.154;2022-10-31T08:41:13;6.15;;;1.95;;
41289;SDS011;36117;46.680;11.154;2022-10-31T08:43:39;3.83;;;1.77;;
41289;SDS011;36117;46.680;11.154;2022-10-31T08:46:05;8.95;;;2.28;;
41289;SDS011;36117;46.680;11.154;2022-10-31T08:48:30;4.88;;;1.77;;
41289;SDS011;36117;46.680;11.154;2022-10-31T08:50:57;6.97;;;2.05;;
41289;SDS011;36117;46.680;11.154;2022-10-31T08:53:24;3.65;;;1.67;;
41289;SDS011;36117;46.680;11.154;2022-10-31T08:55:50;15.52;;;2.90;;
41289;SDS011;36117;46.680;11.154;2022-10-31T08:58:17;9.15;;;2.35;;
41289;SDS011;36117;46.680;11.154;2022-10-31T09:00:45;6.88;;;2.25;;
41289;SDS011;36117;46.680;11.154;2022-10-31T09:03:12;6.40;;;2.05;;
41289;SDS011;36117;46.680;11.154;2022-10-31T09:05:45;5.95;;;2.20;;
41289;SDS011;36117;46.680;11.154;2022-10-31T09:08:11;6.40;;;2.45;;
41289;SDS011;36117;46.680;11.154;2022-10-31T09:10:37;7.38;;;2.88;;
41289;SDS011;36117;46.680;11.154;2022-10-31T09:13:09;11.32;;;1.80;;
41289;SDS011;36117;46.680;11.154;2022-10-31T09:15:37;9.18;;;1.73;;
41289;SDS011;36117;46.680;11.154;2022-10-31T09:18:04;7.82;;;2.10;;
41289;SDS011;36117;46.680;11.154;2022-10-31T09:20:31;7.63;;;2.45;;
41289;SDS011;36117;46.680;11.154;2022-10-31T09:23:02;6.53;;;2.35;;
41289;SDS011;36117;46.680;11.154;2022-10-31T09:25:30;3.58;;;2.10;;
41289;SDS011;36117;46.680;11.154;2022-10-31T09:27:58;6.30;;;2.10;;
41289;SDS011;36117;46.680;11.154;2022-10-31T09:30:25;5.95;;;1.83;;
41289;SDS011;36117;46.680;11.154;2022-10-31T09:33:02;8.75;;;2.13;;
41289;SDS011;36117;46.680;11.154;2022-10-31T09:35:29;8.32;;;2.03;;
41289;SDS011;36117;46.680;11.154;2022-10-31T09:37:56;5.50;;;2.10;;
41289;SDS011;36117;46.680;11.154;2022-10-31T09:46:00;8.85;;;1.92;;
41289;SDS011;36117;46.680;11.154;2022-10-31T09:51:39;7.82;;;2.20;;
41289;SDS011;36117;46.680;11.154;2022-10-31T09:56:39;4.60;;;1.48;;
41289;SDS011;36117;46.680;11.154;2022-10-31T09:59:11;10.65;;;2.80;;
41289;SDS011;36117;46.680;11.154;2022-10-31T10:02:02;8.90;;;1.95;;
41289;SDS011;36117;46.680;11.154;2022-10-31T10:04:55;6.30;;;2.13;;
41289;SDS011;36117;46.680;11.154;2022-10-31T10:10:18;5.05;;;1.50;;
41289;SDS011;36117;46.680;11.154;2022-10-31T10:15:54;3.58;;;1.58;;
41289;SDS011;36117;46.680;11.154;2022-10-31T10:29:40;5.45;;;2.08;;
41289;SDS011;36117;46.680;11.154;2022-10-31T10:32:25;4.97;;;1.52;;
41289;SDS011;36117;46.680;11.154;2022-10-31T10:34:59;3.60;;;1.30;;
41289;SDS011;36117;46.680;11.154;2022-10-31T10:37:44;4.10;;;1.60;;
41289;SDS011;36117;46.680;11.154;2022-10-31T10:40:19;12.68;;;1.98;;
41289;SDS011;36117;46.680;11.154;2022-10-31T10:51:18;5.90;;;2.30;;
41289;SDS011;36117;46.680;11.154;2022-10-31T10:54:00;4.30;;;1.85;;
41289;SDS011;36117;46.680;11.154;2022-10-31T10:59:08;5.85;;;1.83;;
41289;SDS011;36117;46.680;11.154;2022-10-31T11:01:38;3.53;;;1.73;;
41289;SDS011;36117;46.680;11.154;2022-10-31T11:04:11;4.60;;;2.00;;
41289;SDS011;36117;46.680;11.154;2022-10-31T11:06:57;7.88;;;2.22;;
41289;SDS011;36117;46.680;11.154;2022-10-31T11:09:33;4.45;;;1.60;;
41289;SDS011;36117;46.680;11.154;2022-10-31T11:12:00;6.25;;;2.20;;
41289;SDS011;36117;46.680;11.154;2022-10-31T11:14:34;12.27;;;1.92;;
41289;SDS011;36117;46.680;11.154;2022-10-31T11:17:25;8.73;;;2.47;;
41289;SDS011;36117;46.680;11.154;2022-10-31T11:22:29;6.63;;;2.28;;
41289;SDS011;36117;46.680;11.154;2022-10-31T11:24:55;9.35;;;2.00;;
41289;SDS011;36117;46.680;11.154;2022-10-31T11:27:21;7.25;;;1.92;;
41289;SDS011;36117;46.680;11.154;2022-10-31T11:29:49;7.90;;;1.45;;
41289;SDS011;36117;46.680;11.154;2022-10-31T11:32:20;7.22;;;1.55;;
41289;SDS011;36117;46.680;11.154;2022-10-31T11:34:48;11.05;;;2.72;;
41289;SDS011;36117;46.680;11.154;2022-10-31T11:37:20;6.47;;;1.70;;
41289;SDS011;36117;46.680;11.154;2022-10-31T11:39:52;6.57;;;1.70;;
41289;SDS011;36117;46.680;11.154;2022-10-31T11:42:21;7.97;;;1.85;;
41289;SDS011;36117;46.680;11.154;2022-10-31T11:44:52;9.95;;;2.42;;
41289;SDS011;36117;46.680;11.154;2022-10-31T11:47:40;6.95;;;1.75;;
41289;SDS011;36117;46.680;11.154;2022-10-31T11:50:11;8.80;;;3.15;;
41289;SDS011;36117;46.680;11.154;2022-10-31T11:52:46;6.55;;;2.30;;
41289;SDS011;36117;46.680;11.154;2022-10-31T11:57:50;6.45;;;2.33;;
41289;SDS011;36117;46.680;11.154;2022-10-31T12:00:27;5.43;;;2.55;;
41289;SDS011;36117;46.680;11.154;2022-10-31T12:05:58;9.68;;;1.70;;
41289;SDS011;36117;46.680;11.154;2022-10-31T12:08:38;7.57;;;2.28;;
41289;SDS011;36117;46.680;11.154;2022-10-31T12:14:03;7.38;;;2.25;;
41289;SDS011;36117;46.680;11.154;2022-10-31T12:22:48;8.70;;;4.20;;
41289;SDS011;36117;46.680;11.154;2022-10-31T12:30:18;6.72;;;1.90;;
41289;SDS011;36117;46.680;11.154;2022-10-31T12:45:57;11.13;;;2.58;;
41289;SDS011;36117;46.680;11.154;2022-10-31T12:48:35;7.07;;;2.05;;
41289;SDS011;36117;46.680;11.154;2022-10-31T12:59:24;10.82;;;1.92;;
41289;SDS011;36117;46.680;11.154;2022-10-31T13:02:04;8.73;;;2.55;;
41289;SDS011;36117;46.680;11.154;2022-10-31T13:04:51;2.95;;;1.60;;
41289;SDS011;36117;46.680;11.154;2022-10-31T13:07:35;8.10;;;2.50;;
41289;SDS011;36117;46.680;11.154;2022-10-31T13:17:45;15.57;;;4.07;;
41289;SDS011;36117;46.680;11.154;2022-10-31T13:20:20;10.13;;;3.20;;
41289;SDS011;36117;46.680;11.154;2022-10-31T13:22:51;3.42;;;1.75;;
41289;SDS011;36117;46.680;11.154;2022-10-31T13:30:38;6.60;;;1.63;;
41289;SDS011;36117;46.680;11.154;2022-10-31T13:33:14;14.43;;;2.83;;
41289;SDS011;36117;46.680;11.154;2022-10-31T13:41:40;10.60;;;2.90;;
41289;SDS011;36117;46.680;11.154;2022-10-31T13:46:43;9.85;;;2.67;;
41289;SDS011;36117;46.680;11.154;2022-10-31T13:54:38;9.68;;;2.92;;
41289;SDS011;36117;46.680;11.154;2022-10-31T14:00:05;9.80;;;2.38;;
41289;SDS011;36117;46.680;11.154;2022-10-31T14:02:44;9.98;;;2.90;;
41289;SDS011;36117;46.680;11.154;2022-10-31T14:05:24;10.98;;;3.28;;
41289;SDS011;36117;46.680;11.154;2022-10-31T14:07:51;7.82;;;3.45;;
41289;SDS011;36117;46.680;11.154;2022-10-31T14:10:31;13.32;;;3.10;;
41289;SDS011;36117;46.680;11.154;2022-10-31T14:13:06;11.10;;;3.55;;
41289;SDS011;36117;46.680;11.154;2022-10-31T14:15:54;11.13;;;3.33;;
41289;SDS011;36117;46.680;11.154;2022-10-31T14:20:59;8.20;;;2.95;;
41289;SDS011;36117;46.680;11.154;2022-10-31T14:23:31;15.00;;;4.35;;
41289;SDS011;36117;46.680;11.154;2022-10-31T14:26:07;14.93;;;4.57;;
41289;SDS011;36117;46.680;11.154;2022-10-31T14:28:46;8.65;;;3.55;;
41289;SDS011;36117;46.680;11.154;2022-10-31T14:31:30;9.15;;;4.30;;
41289;SDS011;36117;46.680;11.154;2022-10-31T14:34:01;14.93;;;4.22;;
41289;SDS011;36117;46.680;11.154;2022-10-31T14:36:50;13.05;;;2.97;;
41289;SDS011;36117;46.680;11.154;2022-10-31T14:39:29;10.15;;;3.17;;
41289;SDS011;36117;46.680;11.154;2022-10-31T14:53:00;6.88;;;2.65;;
41289;SDS011;36117;46.680;11.154;2022-10-31T14:55:29;11.23;;;3.10;;
41289;SDS011;36117;46.680;11.154;2022-10-31T14:57:57;9.25;;;2.60;;
41289;SDS011;36117;46.680;11.154;2022-10-31T15:00:29;16.10;;;4.07;;
41289;SDS011;36117;46.680;11.154;2022-10-31T15:05:23;17.42;;;3.58;;
41289;SDS011;36117;46.680;11.154;2022-10-31T15:07:56;10.85;;;3.42;;
41289;SDS011;36117;46.680;11.154;2022-10-31T15:10:24;11.40;;;3.33;;
41289;SDS011;36117;46.680;11.154;2022-10-31T15:12:56;20.13;;;4.22;;
41289;SDS011;36117;46.680;11.154;2022-10-31T15:15:42;24.05;;;6.07;;
41289;SDS011;36117;46.680;11.154;2022-10-31T15:18:13;24.25;;;5.68;;
41289;SDS011;36117;46.680;11.154;2022-10-31T15:20:43;15.00;;;5.20;;
41289;SDS011;36117;46.680;11.154;2022-10-31T15:23:10;15.85;;;4.80;;
41289;SDS011;36117;46.680;11.154;2022-10-31T15:25:41;10.25;;;3.10;;
41289;SDS011;36117;46.680;11.154;2022-10-31T15:28:20;14.90;;;4.03;;
41289;SDS011;36117;46.680;11.154;2022-10-31T15:30:59;17.00;;;4.63;;
41289;SDS011;36117;46.680;11.154;2022-10-31T15:33:30;11.82;;;4.22;;
41289;SDS011;36117;46.680;11.154;2022-10-31T15:36:04;17.15;;;3.88;;
41289;SDS011;36117;46.680;11.154;2022-10-31T15:38:30;12.43;;;3.42;;
41289;SDS011;36117;46.680;11.154;2022-10-31T15:41:01;19.70;;;4.85;;
41289;SDS011;36117;46.680;11.154;2022-10-31T15:43:32;12.25;;;3.97;;
41289;SDS011;36117;46.680;11.154;2022-10-31T15:46:01;24.40;;;3.97;;
41289;SDS011;36117;46.680;11.154;2022-10-31T15:48:29;23.08;;;5.43;;
41289;SDS011;36117;46.680;11.154;2022-10-31T15:50:59;20.80;;;5.57;;
41289;SDS011;36117;46.680;11.154;2022-10-31T15:53:30;13.90;;;4.65;;
41289;SDS011;36117;46.680;11.154;2022-10-31T15:56:24;12.90;;;4.47;;
41289;SDS011;36117;46.680;11.154;2022-10-31T15:58:56;13.03;;;4.57;;
41289;SDS011;36117;46.680;11.154;2022-10-31T16:06:34;12.88;;;4.90;;
41289;SDS011;36117;46.680;11.154;2022-10-31T16:09:00;15.40;;;4.55;;
41289;SDS011;36117;46.680;11.154;2022-10-31T16:11:32;21.75;;;6.45;;
41289;SDS011;36117;46.680;11.154;2022-10-31T16:16:44;17.23;;;6.15;;
41289;SDS011;36117;46.680;11.154;2022-10-31T16:21:45;18.48;;;5.60;;
41289;SDS011;36117;46.680;11.154;2022-10-31T16:24:15;20.00;;;5.65;;
41289;SDS011;36117;46.680;11.154;2022-10-31T16:26:50;28.65;;;8.27;;
41289;SDS011;36117;46.680;11.154;2022-10-31T16:29:24;22.77;;;8.40;;
41289;SDS011;36117;46.680;11.154;2022-10-31T16:31:58;16.90;;;7.30;;
41289;SDS011;36117;46.680;11.154;2022-10-31T16:34:24;20.35;;;5.95;;
41289;SDS011;36117;46.680;11.154;2022-10-31T16:36:49;13.93;;;5.38;;
41289;SDS011;36117;46.680;11.154;2022-10-31T16:39:15;17.77;;;6.05;;
41289;SDS011;36117;46.680;11.154;2022-10-31T16:41:46;14.23;;;4.78;;
41289;SDS011;36117;46.680;11.154;2022-10-31T16:44:15;22.15;;;7.25;;
41289;SDS011;36117;46.680;11.154;2022-10-31T16:47:08;25.90;;;7.22;;
41289;SDS011;36117;46.680;11.154;2022-10-31T16:49:37;19.00;;;6.07;;
41289;SDS011;36117;46.680;11.154;2022-10-31T16:52:03;17.90;;;6.18;;
41289;SDS011;36117;46.680;11.154;2022-10-31T16:54:30;23.40;;;5.40;;
41289;SDS011;36117;46.680;11.154;2022-10-31T16:56:57;27.30;;;7.18;;
41289;SDS011;36117;46.680;11.154;2022-10-31T16:59:23;10.45;;;5.00;;
41289;SDS011;36117;46.680;11.154;2022-10-31T17:01:49;16.17;;;6.13;;
41289;SDS011;36117;46.680;11.154;2022-10-31T17:04:15;18.65;;;6.45;;
41289;SDS011;36117;46.680;11.154;2022-10-31T17:06:41;14.10;;;5.25;;
41289;SDS011;36117;46.680;11.154;2022-10-31T17:09:07;17.70;;;7.05;;
41289;SDS011;36117;46.680;11.154;2022-10-31T17:11:33;26.30;;;9.88;;
41289;SDS011;36117;46.680;11.154;2022-10-31T17:13:59;18.85;;;6.80;;
41289;SDS011;36117;46.680;11.154;2022-10-31T17:16:26;13.60;;;5.55;;
41289;SDS011;36117;46.680;11.154;2022-10-31T17:18:52;13.25;;;4.18;;
41289;SDS011;36117;46.680;11.154;2022-10-31T17:21:21;11.75;;;4.60;;
41289;SDS011;36117;46.680;11.154;2022-10-31T17:23:48;16.23;;;5.30;;
41289;SDS011;36117;46.680;11.154;2022-10-31T17:26:15;20.45;;;4.60;;
41289;SDS011;36117;46.680;11.154;2022-10-31T17:28:41;11.77;;;4.30;;
41289;SDS011;36117;46.680;11.154;2022-10-31T17:31:10;8.38;;;3.30;;
41289;SDS011;36117;46.680;11.154;2022-10-31T17:33:50;12.10;;;5.45;;
41289;SDS011;36117;46.680;11.154;2022-10-31T17:36:18;20.20;;;6.13;;
41289;SDS011;36117;46.680;11.154;2022-10-31T17:38:44;15.00;;;5.40;;